Time;durP1;ratioP1;P1;durP2;ratioP2;P2;SDS_P1;SDS_P2;PMS_P1;PMS_P2;Temp;Humidity;BMP_temperature;BMP_pressure;BME280_temperature;BME280_humidity;BME280_pressure;Samples;Min_cycle;Max_cycle;Signal;HPM_P1;HPM_P2
2022/11/29 00:00:18;;;;;;;33.22;19.73;;;;;;;8.60;96.20;101482.72;5055440;28;20512;-50
2022/11/29 00:02:44;;;;;;;32.47;19.45;;;;;;;8.55;96.13;101473.94;5056594;28;20047;-50
2022/11/29 00:05:09;;;;;;;30.05;19.30;;;;;;;8.55;96.19;101484.19;5061330;28;20090;-46
2022/11/29 00:07:34;;;;;;;28.40;18.95;;;;;;;8.52;96.09;101484.94;5061212;28;20027;-48
2022/11/29 00:10:00;;;;;;;27.83;18.70;;;;;;;8.51;96.22;101485.75;5059802;28;20507;-51
2022/11/29 00:12:25;;;;;;;29.27;18.67;;;;;;;8.44;95.84;101481.16;5065775;28;20098;-50
2022/11/29 00:14:50;;;;;;;28.77;18.45;;;;;;;8.48;95.73;101484.72;5066953;28;20040;-50
2022/11/29 00:17:16;;;;;;;27.95;18.42;;;;;;;8.43;96.02;101487.06;5062951;28;20055;-49
2022/11/29 00:19:41;;;;;;;32.65;18.65;;;;;;;8.44;96.07;101482.84;5061521;28;20083;-51
2022/11/29 00:22:06;;;;;;;29.55;19.20;;;;;;;8.47;96.40;101485.53;5065394;28;20164;-50
2022/11/29 00:24:32;;;;;;;25.25;18.60;;;;;;;8.50;96.24;101483.13;5061778;28;20119;-49
2022/11/29 00:26:58;;;;;;;29.35;18.73;;;;;;;8.41;95.88;101490.38;5063975;28;20068;-51
2022/11/29 00:29:23;;;;;;;26.33;18.25;;;;;;;8.44;96.30;101495.66;5061486;28;20122;-50
2022/11/29 00:31:48;;;;;;;24.48;18.48;;;;;;;8.44;96.30;101495.66;5068162;28;20021;-50
2022/11/29 00:34:14;;;;;;;27.17;18.20;;;;;;;8.43;96.38;101489.63;5063360;28;20557;-50
2022/11/29 00:36:40;;;;;;;26.67;19.02;;;;;;;8.44;96.45;101495.66;5066536;28;20033;-49
2022/11/29 00:39:06;;;;;;;28.30;17.95;;;;;;;8.41;96.32;101496.38;5069499;28;20108;-50
2022/11/29 00:41:32;;;;;;;33.58;17.70;;;;;;;8.37;96.49;101499.56;5062516;28;20024;-47
2022/11/29 00:43:57;;;;;;;32.50;18.52;;;;;;;8.34;96.38;101499.41;5065625;28;20086;-51
2022/11/29 00:46:24;;;;;;;32.58;17.58;;;;;;;8.31;96.50;101502.72;5065084;28;20028;-50
2022/11/29 00:48:49;;;;;;;24.92;17.65;;;;;;;8.29;97.02;101503.44;5067225;28;20043;-51
2022/11/29 00:51:14;;;;;;;23.27;17.38;;;;;;;8.37;96.87;101504.69;5064001;28;20108;-49
2022/11/29 00:53:40;;;;;;;24.00;17.58;;;;;;;8.41;97.08;101500.63;5067610;28;20046;-50
2022/11/29 00:56:06;;;;;;;29.48;18.40;;;;;;;8.38;97.34;101506.50;5066157;28;20373;-50
2022/11/29 00:58:32;;;;;;;25.55;17.85;;;;;;;8.38;97.63;101503.94;5066111;28;20037;-50
2022/11/29 01:00:57;;;;;;;28.67;18.45;;;;;;;8.43;97.46;101499.00;5068673;28;20749;-50
2022/11/29 01:03:23;;;;;;;28.65;19.00;;;;;;;8.46;97.47;101507.72;5056251;28;20033;-50
2022/11/29 01:05:49;;;;;;;32.78;19.35;;;;;;;8.47;97.59;101508.59;5065263;28;20037;-51
2022/11/29 01:08:15;;;;;;;26.48;18.88;;;;;;;8.48;97.86;101502.66;5060956;28;20033;-49
2022/11/29 01:10:40;;;;;;;29.08;20.10;;;;;;;8.47;97.83;101499.22;5061930;28;20066;-51
2022/11/29 01:13:06;;;;;;;27.35;19.48;;;;;;;8.47;97.94;101496.66;5063318;28;20027;-47
2022/11/29 01:15:32;;;;;;;28.50;19.27;;;;;;;8.47;97.92;101500.91;5066407;28;20044;-51
2022/11/29 01:17:58;;;;;;;29.33;19.70;;;;;;;8.38;97.74;101496.25;5066718;28;20043;-50
2022/11/29 01:20:23;;;;;;;26.38;19.50;;;;;;;8.43;97.65;101502.44;5063803;28;20041;-48
2022/11/29 01:22:49;;;;;;;36.90;19.55;;;;;;;8.42;97.63;101502.38;5063978;28;20489;-50
2022/11/29 01:25:14;;;;;;;39.40;19.25;;;;;;;8.40;97.78;101498.88;5058460;28;20382;-50
2022/11/29 01:27:40;;;;;;;34.30;18.58;;;;;;;8.44;97.90;101503.34;5062819;28;20033;-49
2022/11/29 01:30:08;;;;;;;26.90;18.63;;;;;;;8.44;97.47;101506.78;5065005;28;20120;-48
2022/11/29 01:32:34;;;;;;;28.88;18.95;;;;;;;8.40;97.00;101506.56;5067009;28;20033;-49
2022/11/29 01:34:59;;;;;;;36.25;18.45;;;;;;;8.38;96.76;101505.63;5058543;28;20071;-51
2022/11/29 01:37:27;;;;;;;29.70;17.58;;;;;;;8.38;96.56;101505.63;5062221;28;20432;-50
2022/11/29 01:39:52;;;;;;;24.52;17.73;;;;;;;8.33;96.23;101505.34;5062224;28;20509;-49
2022/11/29 01:42:18;;;;;;;26.45;17.20;;;;;;;8.31;96.35;101506.94;5061938;28;20120;-49
2022/11/29 01:44:43;;;;;;;23.48;17.02;;;;;;;8.31;95.95;101509.50;5061668;28;20056;-49
2022/11/29 01:47:10;;;;;;;28.38;17.63;;;;;;;8.32;96.17;101518.97;5064036;28;20039;-49
2022/11/29 01:49:42;;;;;;;24.92;16.92;;;;;;;8.37;96.01;101519.19;5066179;28;20086;-51
2022/11/29 01:52:21;;;;;;;22.88;16.08;;;;;;;8.38;96.28;101524.44;5065264;28;20029;-50
2022/11/29 01:54:49;;;;;;;21.92;16.58;;;;;;;8.37;95.36;101519.19;5065696;28;20067;-50
2022/11/29 01:57:17;;;;;;;21.92;16.08;;;;;;;8.38;95.39;101521.88;5061046;28;20684;-51
2022/11/29 01:59:49;;;;;;;22.98;16.67;;;;;;;8.40;95.46;101524.50;5064220;28;20021;-51
2022/11/29 02:02:19;;;;;;;22.30;16.63;;;;;;;8.31;95.65;101530.00;5061615;28;20028;-50
2022/11/29 02:04:46;;;;;;;24.02;16.85;;;;;;;8.26;94.96;101536.63;5058891;28;20125;-50
2022/11/29 02:07:11;;;;;;;22.23;16.77;;;;;;;8.31;95.13;101535.13;5061608;28;20029;-49
2022/11/29 02:09:37;;;;;;;24.67;16.98;;;;;;;8.26;95.30;101541.75;5062057;28;21643;-49
2022/11/29 02:12:20;;;;;;;22.38;17.27;;;;;;;8.27;95.30;101549.50;5062724;28;20397;-48
2022/11/29 02:15:05;;;;;;;25.48;18.00;;;;;;;8.27;95.47;101541.81;5061262;28;20111;-48
2022/11/29 02:17:49;;;;;;;26.50;18.70;;;;;;;8.17;95.38;101542.16;5061419;28;20028;-47
2022/11/29 02:20:45;;;;;;;29.17;18.25;;;;;;;8.24;96.17;101543.34;5021736;28;1095961;-49
2022/11/29 02:23:21;;;;;;;27.70;17.15;;;;;;;8.23;96.11;101536.47;5061239;28;20051;-49
2022/11/29 02:26:23;;;;;;;25.48;17.02;;;;;;;8.24;96.13;101545.91;5061452;28;20513;-49
2022/11/29 02:29:27;;;;;;;26.17;16.20;;;;;;;8.20;95.74;101542.31;5063135;28;20519;-49
2022/11/29 02:32:30;;;;;;;24.58;16.02;;;;;;;8.21;95.52;101553.44;5060961;28;20070;-48
2022/11/29 02:35:20;;;;;;;20.17;15.85;;;;;;;8.19;95.62;101539.66;5059828;28;20478;-49
2022/11/29 02:38:06;;;;;;;20.95;15.73;;;;;;;8.17;95.60;101548.97;5061667;28;20052;-50
2022/11/29 02:41:06;;;;;;;17.35;15.02;;;;;;;8.13;95.72;101550.53;5064517;28;20020;-49
2022/11/29 02:44:28;;;;;;;19.25;15.57;;;;;;;8.10;95.29;101550.34;5062775;28;20495;-49
2022/11/29 02:47:26;;;;;;;21.00;15.57;;;;;;;8.09;95.32;101553.72;5022460;28;20470;-49
2022/11/29 02:50:15;;;;;;;18.27;14.80;;;;;;;8.05;95.30;101547.56;5025184;28;20485;-50
2022/11/29 02:52:53;;;;;;;21.35;15.27;;;;;;;7.95;95.46;101549.63;5060553;28;20037;-48
2022/11/29 02:55:37;;;;;;;21.83;15.18;;;;;;;8.00;95.54;101549.00;5065708;28;20779;-50
2022/11/29 02:58:18;;;;;;;20.17;16.40;;;;;;;8.02;95.49;101557.66;5059150;28;20043;-48
2022/11/29 03:01:01;;;;;;;19.02;15.23;;;;;;;8.00;95.56;101559.25;5063445;28;20028;-50
2022/11/29 03:03:37;;;;;;;23.20;16.00;;;;;;;7.94;95.71;101560.63;5063559;28;20103;-48
2022/11/29 03:06:45;;;;;;;21.90;15.32;;;;;;;8.00;95.86;101571.19;5056806;28;20067;-48
2022/11/29 03:09:24;;;;;;;35.08;16.02;;;;;;;7.90;96.15;101572.44;5057787;28;20030;-46
2022/11/29 03:12:15;;;;;;;22.15;15.48;;;;;;;7.97;96.21;101571.94;5058611;28;20024;-50
2022/11/29 03:14:52;;;;;;;33.90;16.02;;;;;;;7.92;96.92;101569.94;5059843;28;20547;-51
2022/11/29 03:17:44;;;;;;;36.47;15.95;;;;;;;7.94;96.58;101579.44;5060854;28;20040;-51
2022/11/29 03:20:39;;;;;;;21.67;14.63;;;;;;;7.95;96.43;101580.34;5036828;28;20056;-47
2022/11/29 03:23:19;;;;;;;17.52;14.70;;;;;;;7.84;96.42;101582.38;5055389;28;20143;-51
2022/11/29 03:25:52;;;;;;;17.77;14.27;;;;;;;7.85;95.81;101585.81;5060347;28;20032;-51
2022/11/29 03:28:21;;;;;;;22.92;14.25;;;;;;;7.80;95.54;101583.00;5059730;28;20393;-49
2022/11/29 03:31:04;;;;;;;18.77;14.60;;;;;;;7.88;95.85;101586.81;5057000;28;20480;-50
2022/11/29 03:33:40;;;;;;;18.52;14.05;;;;;;;7.84;95.27;101591.72;5059248;28;20032;-50
2022/11/29 03:36:17;;;;;;;20.25;14.35;;;;;;;7.76;95.60;101589.63;5059332;28;20028;-48
2022/11/29 03:38:45;;;;;;;24.77;14.25;;;;;;;7.71;95.05;101595.34;5050760;28;20028;-51
2022/11/29 03:41:18;;;;;;;21.33;14.30;;;;;;;7.74;95.64;101591.25;5060670;28;20082;-47
2022/11/29 03:44:11;;;;;;;26.85;14.63;;;;;;;7.78;95.76;101603.41;5062383;28;20031;-49
2022/11/29 03:46:41;;;;;;;19.27;13.68;;;;;;;7.64;95.40;101599.25;5065106;28;20085;-51
2022/11/29 03:49:14;;;;;;;31.90;14.45;;;;;;;7.68;96.20;101605.41;5062251;28;20032;-50
2022/11/29 03:52:16;;;;;;;17.35;13.95;;;;;;;7.74;96.31;101605.72;5061749;28;20115;-47
2022/11/29 03:54:55;;;;;;;21.42;14.05;;;;;;;7.71;96.13;101610.72;5067681;28;20023;-49
2022/11/29 03:57:27;;;;;;;;;;;;;;;7.86;95.16;101615.72;5062814;28;20059;-46
2022/11/29 04:00:03;;;;;;;24.00;13.23;;;;;;;7.70;95.65;101614.91;5062687;28;20368;-49
2022/11/29 04:03:05;;;;;;;23.58;14.23;;;;;;;7.75;95.92;101618.59;5056858;28;20060;-48
2022/11/29 04:05:48;;;;;;;18.17;13.93;;;;;;;7.74;95.99;101615.97;5065029;28;20457;-50
2022/11/29 04:08:56;;;;;;;28.27;14.25;;;;;;;7.74;96.29;101621.97;5057410;28;20043;-48
2022/11/29 04:11:35;;;;;;;26.42;14.05;;;;;;;7.63;95.74;101617.09;5058478;28;20044;-50
2022/11/29 04:14:24;;;;;;;23.45;13.40;;;;;;;7.71;96.27;101626.06;5058032;28;20085;-49
2022/11/29 04:17:23;;;;;;;18.70;13.32;;;;;;;7.72;95.94;101622.72;5064587;28;20032;-49
2022/11/29 04:20:04;;;;;;;25.83;13.13;;;;;;;7.64;95.82;101618.84;5065608;28;20164;-50
2022/11/29 04:22:42;;;;;;;29.85;13.05;;;;;;;7.57;95.59;101627.88;5065405;28;20028;-50
2022/11/29 04:25:31;;;;;;;29.67;13.93;;;;;;;7.52;95.64;101629.31;5063849;28;20082;-49
2022/11/29 04:28:15;;;;;;;28.90;14.38;;;;;;;7.58;95.74;101631.31;5059006;28;20078;-49
2022/11/29 04:31:08;;;;;;;33.70;13.25;;;;;;;7.53;nan;101638.78;5061689;28;20025;-49
2022/11/29 04:33:51;;;;;;;26.60;13.32;;;;;;;7.51;95.44;101645.47;5064342;28;20081;-50
2022/11/29 04:36:56;;;;;;;22.02;12.82;;;;;;;7.58;95.90;101646.69;5063588;28;20511;-50
2022/11/29 04:39:54;;;;;;;20.23;13.07;;;;;;;7.60;95.82;101642.53;5057603;28;20020;-49
2022/11/29 04:42:37;;;;;;;26.42;12.13;;;;;;;7.45;95.22;101643.47;5059219;28;20028;-50
2022/11/29 04:45:14;;;;;;;33.78;12.00;;;;;;;7.41;95.24;101646.69;5062179;28;20456;-49
2022/11/29 04:47:40;;;;;;;19.38;12.25;;;;;;;7.46;95.31;101652.94;5062715;28;20116;-51
2022/11/29 04:50:27;;;;;;;28.25;12.27;;;;;;;7.48;95.38;101653.91;5061153;28;20075;-49
2022/11/29 04:53:07;;;;;;;22.17;11.70;;;;;;;7.42;95.15;101668.03;5063028;28;20820;-50
2022/11/29 04:56:04;;;;;;;28.40;13.02;;;;;;;7.46;95.87;101663.19;5064642;28;20029;-47
2022/11/29 04:58:38;;;;;;;28.63;12.75;;;;;;;7.44;95.87;101662.19;5060553;28;21251;-49
2022/11/29 05:01:25;;;;;;;28.27;12.80;;;;;;;7.45;95.94;101656.28;5068982;28;20025;-46
2022/11/29 05:03:56;;;;;;;21.17;13.15;;;;;;;7.47;95.80;101661.50;5069247;28;20078;-50
2022/11/29 05:06:34;;;;;;;23.27;12.63;;;;;;;7.44;96.19;101669.88;5061708;28;20047;-49
2022/11/29 05:09:30;;;;;;;25.67;13.95;;;;;;;7.52;96.10;101666.06;5063403;28;20469;-48
2022/11/29 05:12:13;;;;;;;21.13;13.45;;;;;;;7.53;96.41;101682.28;5056508;28;20032;-51
2022/11/29 05:15:00;;;;;;;26.27;13.35;;;;;;;7.52;96.45;101683.06;5066874;28;20029;-49
2022/11/29 05:17:32;;;;;;;25.30;14.20;;;;;;;7.47;95.83;101684.53;5063604;28;20029;-49
2022/11/29 05:20:10;;;;;;;19.55;13.75;;;;;;;7.53;96.41;101685.72;5063369;28;20083;-49
2022/11/29 05:23:03;;;;;;;22.17;13.88;;;;;;;7.56;96.13;101692.69;5066343;28;20031;-49
2022/11/29 05:25:34;;;;;;;23.65;13.88;;;;;;;7.53;96.25;101692.53;5062599;28;20067;-50
2022/11/29 05:28:08;;;;;;;23.48;14.15;;;;;;;7.53;96.03;101698.53;5064038;28;20650;-51
2022/11/29 05:30:58;;;;;;;26.50;14.40;;;;;;;7.55;96.29;101695.16;5061335;28;20111;-50
2022/11/29 05:34:01;;;;;;;24.75;14.27;;;;;;;7.60;95.98;101703.97;5062193;28;20040;-50
2022/11/29 05:37:10;;;;;;;31.83;15.30;;;;;;;7.63;95.92;101704.13;5069334;28;20043;-50
2022/11/29 05:39:43;;;;;;;35.55;15.50;;;;;;;7.57;95.93;101706.34;5047302;28;20047;-50
2022/11/29 05:42:32;;;;;;;28.98;15.27;;;;;;;7.57;96.14;101711.47;5052693;28;20481;-49
2022/11/29 05:45:24;;;;;;;27.80;15.60;;;;;;;7.61;96.38;101710.84;5058410;28;20055;-50
2022/11/29 05:48:11;;;;;;;26.23;15.25;;;;;;;7.57;96.27;101720.03;5067803;28;20024;-50
2022/11/29 05:50:38;;;;;;;28.15;15.52;;;;;;;7.56;96.19;101719.94;5062330;28;20559;-49
2022/11/29 05:53:12;;;;;;;31.95;15.45;;;;;;;7.50;96.58;101725.63;5065413;28;20016;-49
2022/11/29 05:55:52;;;;;;;25.80;15.40;;;;;;;7.52;96.48;101727.47;5068575;28;20052;-51
2022/11/29 05:58:39;;;;;;;24.52;14.30;;;;;;;7.56;96.75;101728.50;5064623;28;20468;-49
2022/11/29 06:01:18;;;;;;;26.10;14.35;;;;;;;7.52;96.38;101729.13;5064700;28;20416;-50
2022/11/29 06:03:50;;;;;;;24.90;14.90;;;;;;;7.51;96.50;101728.25;5066485;28;20074;-46
2022/11/29 06:06:24;;;;;;;27.17;14.60;;;;;;;7.44;96.33;101728.72;5066736;28;20111;-49
2022/11/29 06:09:10;;;;;;;23.48;14.35;;;;;;;7.49;96.34;101739.22;5064001;28;20477;-50
2022/11/29 06:11:40;;;;;;;37.72;16.15;;;;;;;7.44;96.53;101736.41;5065537;28;20032;-51
2022/11/29 06:14:23;;;;;;;24.40;14.82;;;;;;;7.45;97.20;101744.97;5055077;28;20028;-47
2022/11/29 06:16:51;;;;;;;29.13;15.18;;;;;;;7.40;96.53;101752.41;5062434;28;20237;-50
2022/11/29 06:19:38;;;;;;;29.23;15.20;;;;;;;7.44;97.23;101751.75;5059754;28;20020;-50
2022/11/29 06:22:29;;;;;;;34.70;16.13;;;;;;;7.39;96.78;101755.72;5062106;28;20581;-49
2022/11/29 06:25:23;;;;;;;31.67;15.13;;;;;;;7.48;97.07;101757.94;5063274;28;21850;-48
2022/11/29 06:28:17;;;;;;;31.23;15.70;;;;;;;7.48;97.57;101757.94;5055812;28;20959;-49
2022/11/29 06:30:59;;;;;;;32.80;15.32;;;;;;;7.44;97.95;101764.56;5060759;28;20505;-49
2022/11/29 06:33:43;;;;;;;33.75;15.27;;;;;;;7.45;97.77;101761.19;5060607;28;20036;-48
2022/11/29 06:36:45;;;;;;;27.35;16.08;;;;;;;7.46;97.66;101770.66;5062137;28;20376;-47
2022/11/29 06:39:10;;;;;;;29.52;16.17;;;;;;;7.40;97.59;101775.44;5053230;28;20051;-47
2022/11/29 06:41:36;;;;;;;28.67;14.88;;;;;;;7.42;97.67;101780.63;5058837;28;20029;-49
2022/11/29 06:44:02;;;;;;;27.05;14.60;;;;;;;7.39;97.92;101790.69;5055190;28;20369;-51
2022/11/29 06:46:38;;;;;;;30.17;15.13;;;;;;;7.36;97.74;101790.53;5057278;28;20021;-47
2022/11/29 06:49:26;;;;;;;26.52;14.93;;;;;;;7.38;98.02;101787.25;5059148;28;20075;-51
2022/11/29 06:52:14;;;;;;;27.70;16.05;;;;;;;7.47;98.43;101799.69;5059417;28;20488;-51
2022/11/29 06:55:00;;;;;;;26.50;15.45;;;;;;;7.46;98.00;101796.25;5061079;28;20575;-49
2022/11/29 06:57:58;;;;;;;30.23;15.18;;;;;;;7.45;98.18;101806.38;5061092;28;20041;-48
2022/11/29 07:00:27;;;;;;;28.30;15.93;;;;;;;7.43;97.72;101811.41;5059971;28;20078;-50
2022/11/29 07:03:14;;;;;;;34.50;16.38;;;;;;;7.46;98.14;101809.03;5058826;28;20492;-50
2022/11/29 07:05:40;;;;;;;28.35;15.40;;;;;;;7.43;98.13;101810.53;5059206;28;20127;-49
2022/11/29 07:08:12;;;;;;;28.00;15.68;;;;;;;7.44;98.41;101812.28;5059129;28;20032;-47
2022/11/29 07:10:40;;;;;;;35.60;15.02;;;;;;;7.41;98.15;101814.69;5055812;28;20028;-50
2022/11/29 07:13:05;;;;;;;34.22;14.77;;;;;;;7.37;97.88;101813.63;5059443;28;20043;-49
2022/11/29 07:15:31;;;;;;;29.58;14.32;;;;;;;7.37;98.39;101828.97;5054131;28;20041;-50
2022/11/29 07:17:59;;;;;;;28.75;14.55;;;;;;;7.44;98.33;101832.75;5057251;28;20047;-47
2022/11/29 07:20:43;;;;;;;39.53;15.55;;;;;;;7.47;98.40;101831.28;5059717;28;20417;-47
2022/11/29 07:23:27;;;;;;;29.52;15.68;;;;;;;7.50;98.42;101830.53;5057549;28;20043;-51
2022/11/29 07:25:55;;;;;;;28.17;15.10;;;;;;;7.46;98.51;101833.72;5061354;28;20075;-49
2022/11/29 07:28:42;;;;;;;37.00;15.55;;;;;;;7.44;98.59;101831.09;5058874;28;20036;-49
2022/11/29 07:31:39;;;;;;;37.15;15.63;;;;;;;7.53;99.13;101838.41;5059807;28;20029;-47
2022/11/29 07:34:34;;;;;;;40.72;15.18;;;;;;;7.51;98.91;101843.41;5046007;28;20075;-49
2022/11/29 07:37:34;;;;;;;33.30;15.80;;;;;;;7.48;99.17;101844.94;5058977;28;20043;-48
2022/11/29 07:40:15;;;;;;;31.73;16.55;;;;;;;7.46;99.21;101847.44;5058944;28;20032;-52
2022/11/29 07:42:43;;;;;;;40.05;16.23;;;;;;;7.43;99.21;101846.34;5059463;28;20073;-49
2022/11/29 07:45:32;;;;;;;39.70;18.03;;;;;;;7.45;99.34;101847.31;5053493;28;20060;-49
2022/11/29 07:47:57;;;;;;;39.50;18.23;;;;;;;7.45;99.09;101849.88;5057970;28;20034;-48
2022/11/29 07:50:24;;;;;;;36.92;17.63;;;;;;;7.44;99.21;101860.91;5060083;28;20297;-47
2022/11/29 07:52:50;;;;;;;35.20;17.88;;;;;;;7.41;99.23;101863.31;5058440;28;20071;-50
2022/11/29 07:55:19;;;;;;;33.15;16.90;;;;;;;7.43;99.27;101856.59;5058299;28;20032;-51
2022/11/29 07:57:45;;;;;;;35.25;16.17;;;;;;;7.46;99.33;101859.31;5061540;28;20470;-49
2022/11/29 08:00:11;;;;;;;35.53;16.42;;;;;;;7.46;99.49;101867.00;5060052;28;20166;-49
2022/11/29 08:02:36;;;;;;;32.30;16.67;;;;;;;7.44;99.63;101866.91;5061008;28;20115;-50
2022/11/29 08:05:02;;;;;;;31.77;16.02;;;;;;;7.46;99.53;101856.75;5057463;28;20083;-49
2022/11/29 08:07:28;;;;;;;30.88;15.98;;;;;;;7.47;99.32;101859.41;5062205;28;20040;-49
2022/11/29 08:09:53;;;;;;;48.78;15.35;;;;;;;7.40;99.59;101856.41;5059020;28;20047;-49
2022/11/29 08:12:19;;;;;;;35.63;16.67;;;;;;;7.44;99.67;101859.22;5060220;28;20101;-50
2022/11/29 08:14:44;;;;;;;32.83;15.32;;;;;;;7.46;99.88;101859.31;5061326;28;20031;-51
2022/11/29 08:17:09;;;;;;;35.22;15.70;;;;;;;7.47;100.00;101859.41;5051890;28;20030;-50
2022/11/29 08:19:35;;;;;;;29.38;16.02;;;;;;;7.51;100.00;101868.13;5058033;28;20112;-52
2022/11/29 08:22:00;;;;;;;30.77;17.10;;;;;;;7.52;100.00;101869.88;5057487;28;20057;-51
2022/11/29 08:24:26;;;;;;;34.22;16.38;;;;;;;7.51;100.00;101868.13;5059228;28;20388;-51
2022/11/29 08:26:51;;;;;;;30.08;15.98;;;;;;;7.56;100.00;101876.09;5058524;28;20037;-52
2022/11/29 08:29:17;;;;;;;29.27;16.48;;;;;;;7.58;100.00;101870.22;5057052;28;20480;-50
2022/11/29 08:31:44;;;;;;;34.05;16.05;;;;;;;7.56;100.00;101868.41;5059202;28;20178;-49
2022/11/29 08:34:09;;;;;;;33.55;16.77;;;;;;;7.57;100.00;101872.72;5061467;28;20466;-48
2022/11/29 08:36:35;;;;;;;31.60;17.02;;;;;;;7.60;100.00;101872.91;5065182;28;20089;-50
2022/11/29 08:39:01;;;;;;;32.35;17.25;;;;;;;7.60;100.00;101878.03;5062401;28;21170;-51
2022/11/29 08:41:28;;;;;;;38.33;18.67;;;;;;;7.63;100.00;101878.19;5064341;28;20366;-49
2022/11/29 08:43:53;;;;;;;34.03;18.15;;;;;;;7.61;100.00;101880.66;5062003;28;20056;-51
2022/11/29 08:46:19;;;;;;;48.17;19.60;;;;;;;7.63;100.00;101879.06;5060610;28;20536;-50
2022/11/29 08:48:46;;;;;;;42.47;18.92;;;;;;;7.68;100.00;101885.31;5055653;28;20024;-50
2022/11/29 08:51:11;;;;;;;41.22;18.58;;;;;;;7.72;100.00;101888.94;5061831;28;20045;-48
2022/11/29 08:53:40;;;;;;;49.50;18.73;;;;;;;7.71;100.00;101887.19;5064030;28;21919;-48
2022/11/29 08:56:19;;;;;;;43.47;19.53;;;;;;;7.73;100.00;101888.16;5060834;28;20039;-50
2022/11/29 08:58:45;;;;;;;44.95;19.42;;;;;;;7.72;100.00;101899.19;5061115;28;20033;-53
2022/11/29 09:01:16;;;;;;;42.83;18.98;;;;;;;7.74;100.00;101901.03;5064239;28;20032;-50
2022/11/29 09:03:58;;;;;;;45.70;19.23;;;;;;;7.71;100.00;101911.13;5062475;28;20452;-54
2022/11/29 09:06:26;;;;;;;41.22;19.98;;;;;;;7.80;100.00;101903.94;5061159;28;20031;-52
2022/11/29 09:08:53;;;;;;;44.53;19.80;;;;;;;7.80;100.00;101908.16;5062930;28;20489;-52
2022/11/29 09:11:21;;;;;;;51.05;20.02;;;;;;;7.81;100.00;101907.38;5060805;28;20040;-52
2022/11/29 09:13:49;;;;;;;49.60;20.88;;;;;;;7.84;100.00;101914.34;5061742;28;20454;-54
2022/11/29 09:16:17;;;;;;;52.20;20.25;;;;;;;7.85;100.00;101922.13;5062722;28;20397;-52
2022/11/29 09:18:44;;;;;;;46.35;20.75;;;;;;;7.89;100.00;101925.75;5055674;28;20048;-51
2022/11/29 09:21:12;;;;;;;49.10;21.83;;;;;;;7.92;100.00;101919.09;5059022;28;20044;-53
2022/11/29 09:23:40;;;;;;;50.60;21.55;;;;;;;7.91;100.00;101922.47;5062874;28;20044;-47
2022/11/29 09:26:06;;;;;;;49.80;20.17;;;;;;;7.90;100.00;101924.94;5062774;28;20029;-52
2022/11/29 09:28:33;;;;;;;46.63;19.35;;;;;;;7.97;100.00;101933.03;5060264;28;20542;-50
2022/11/29 09:31:11;;;;;;;47.30;20.17;;;;;;;8.02;100.00;101930.75;5063303;28;20032;-49
2022/11/29 09:33:38;;;;;;;58.13;20.73;;;;;;;7.95;100.00;101936.34;5062617;28;20036;-49
2022/11/29 09:36:05;;;;;;;46.08;19.77;;;;;;;8.04;100.00;101941.94;5061511;28;20051;-51
2022/11/29 09:38:32;;;;;;;51.25;19.67;;;;;;;8.05;100.00;101944.59;5058688;28;20028;-52
2022/11/29 09:41:20;;;;;;;55.67;20.45;;;;;;;8.14;100.00;101941.66;5060276;28;20389;-47
2022/11/29 09:44:01;;;;;;;49.50;20.23;;;;;;;8.14;100.00;101953.59;5052034;28;20444;-50
2022/11/29 09:46:42;;;;;;;55.72;20.30;;;;;;;8.13;100.00;101956.94;5061581;28;20036;-49
2022/11/29 09:49:34;;;;;;;48.47;20.10;;;;;;;8.17;100.00;101958.88;5057107;28;20048;-53
2022/11/29 09:52:21;;;;;;;59.10;19.17;;;;;;;8.10;100.00;101964.47;5060468;28;20401;-52
2022/11/29 09:54:53;;;;;;;46.83;18.83;;;;;;;8.10;100.00;101959.34;5061927;28;20029;-49
2022/11/29 09:57:22;;;;;;;49.42;17.60;;;;;;;8.11;100.00;101955.97;5058685;28;20040;-53
2022/11/29 09:59:52;;;;;;;50.95;19.05;;;;;;;8.14;100.00;101953.59;5060033;28;20058;-48
2022/11/29 10:02:44;;;;;;;53.53;18.85;;;;;;;8.19;100.00;101962.38;5062022;28;20017;-53
2022/11/29 10:05:18;;;;;;;49.20;18.65;;;;;;;8.16;100.00;101962.25;5061330;28;20068;-51
2022/11/29 10:08:07;;;;;;;47.25;18.63;;;;;;;8.24;100.00;101964.41;5062034;28;20040;-49
2022/11/29 10:10:40;;;;;;;;;;;;;;;8.33;100.00;101957.25;5059276;28;20481;-56
2022/11/29 10:13:17;;;;;;;42.05;17.23;;;;;;;8.25;100.00;101957.59;5057606;28;19991;-47
2022/11/29 10:15:46;;;;;;;38.22;15.32;;;;;;;8.24;100.00;101958.41;5058889;28;20024;-49
2022/11/29 10:18:26;;;;;;;36.72;14.07;;;;;;;8.23;100.00;101961.78;5057327;28;20489;-48
2022/11/29 10:20:56;;;;;;;36.97;14.25;;;;;;;8.22;100.00;101960.00;5052445;28;20037;-50
2022/11/29 10:23:45;;;;;;;37.65;15.20;;;;;;;8.24;100.00;101951.59;5059248;28;20056;-49
2022/11/29 10:26:11;;;;;;;36.60;15.05;;;;;;;8.25;100.00;101962.72;5059426;28;20139;-50
2022/11/29 10:28:43;;;;;;;36.30;15.00;;;;;;;8.24;100.00;101958.41;5058765;28;20032;-51
2022/11/29 10:31:18;;;;;;;39.03;15.40;;;;;;;8.24;100.00;101948.16;5061648;28;20465;-48
2022/11/29 10:33:44;;;;;;;40.03;15.57;;;;;;;8.20;100.00;101947.13;5060312;28;20036;-48
2022/11/29 10:36:22;;;;;;;35.30;15.23;;;;;;;8.27;100.00;101948.34;5055806;28;20044;-47
2022/11/29 10:38:49;;;;;;;39.22;14.75;;;;;;;8.23;100.00;101954.97;5058484;28;20052;-47
2022/11/29 10:41:19;;;;;;;36.80;14.90;;;;;;;8.22;100.00;101955.78;5057172;28;20032;-50
2022/11/29 10:43:46;;;;;;;34.60;14.93;;;;;;;8.23;100.00;101956.66;5058044;28;20464;-48
2022/11/29 10:46:34;;;;;;;39.00;16.27;;;;;;;8.30;100.00;101958.75;5052630;28;20473;-51
2022/11/29 10:49:03;;;;;;;41.47;16.80;;;;;;;8.26;100.00;101959.41;5053254;28;20114;-49
2022/11/29 10:51:30;;;;;;;40.90;17.70;;;;;;;8.25;100.00;101961.09;5053717;28;20563;-50
2022/11/29 10:54:21;;;;;;;38.17;16.70;;;;;;;8.28;100.00;101961.22;5055991;28;20165;-48
2022/11/29 10:56:47;;;;;;;41.92;18.00;;;;;;;8.30;100.00;101963.88;5048392;28;20481;-51
2022/11/29 10:59:24;;;;;;;40.15;16.90;;;;;;;8.37;100.00;101960.88;5054458;28;20017;-50
2022/11/29 11:01:51;;;;;;;43.40;17.02;;;;;;;8.29;100.00;101962.09;5056536;28;20036;-46
2022/11/29 11:04:31;;;;;;;45.22;17.75;;;;;;;8.33;100.00;101957.25;5057480;28;20040;-49
2022/11/29 11:07:01;;;;;;;43.15;18.20;;;;;;;8.37;100.00;101965.13;5056668;28;20073;-49
2022/11/29 11:09:41;;;;;;;40.45;18.17;;;;;;;8.39;100.00;101969.53;5055765;28;20149;-51
2022/11/29 11:12:20;;;;;;;42.15;18.58;;;;;;;8.39;100.00;101964.41;5055589;28;20047;-48
2022/11/29 11:14:47;;;;;;;41.85;18.20;;;;;;;8.34;100.00;101968.38;5056514;28;20099;-48
2022/11/29 11:17:25;;;;;;;45.75;18.95;;;;;;;8.35;100.00;101967.56;5056219;28;20037;-50
2022/11/29 11:20:00;;;;;;;44.22;17.88;;;;;;;8.38;100.00;101964.34;5054827;28;20025;-49
2022/11/29 11:22:29;;;;;;;42.15;18.60;;;;;;;8.40;100.00;101971.31;5050212;28;22873;-50
2022/11/29 11:25:22;;;;;;;47.10;19.17;;;;;;;8.42;100.00;101956.88;5054302;28;20051;-50
2022/11/29 11:27:48;;;;;;;45.38;18.83;;;;;;;8.44;100.00;101957.88;5055480;28;20055;-47
2022/11/29 11:30:26;;;;;;;40.33;18.25;;;;;;;8.48;100.00;101966.59;5054056;28;20500;-50
2022/11/29 11:33:14;;;;;;;46.63;20.13;;;;;;;8.52;100.00;101971.97;5055284;28;20032;-50
2022/11/29 11:35:40;;;;;;;43.05;19.98;;;;;;;8.47;100.00;101977.63;5053678;28;20466;-48
2022/11/29 11:38:14;;;;;;;48.63;18.77;;;;;;;8.49;100.00;101976.94;5057578;28;20074;-51
2022/11/29 11:40:40;;;;;;;42.75;18.30;;;;;;;8.46;100.00;101979.31;5055520;28;20056;-48
2022/11/29 11:43:20;;;;;;;43.75;18.20;;;;;;;8.50;100.00;101982.94;5058652;28;20055;-49
2022/11/29 11:45:53;;;;;;;42.58;17.58;;;;;;;8.51;100.00;101984.72;5057562;28;20040;-48
2022/11/29 11:48:19;;;;;;;42.33;17.55;;;;;;;8.47;100.00;101993.03;5061551;28;20062;-49
2022/11/29 11:50:51;;;;;;;44.55;18.75;;;;;;;8.48;100.00;101997.34;5059634;28;20099;-51
2022/11/29 11:53:35;;;;;;;45.83;19.38;;;;;;;8.47;100.00;101991.34;5059255;28;20493;-50